This is the latest recevied weather packets stored in our database for station/object OK2IGL-6. If no packets are shown the sender has not sent any weather packets the latest 10 day(s).
| Time | Temp. | Humidity | Pressure | Rain* | Wind** | Luminosity | Snow |
|---|---|---|---|---|---|---|---|
| 1777448154 | 13.33° C | 43% | 1022 hPa | - | - | - | - |
| 1777447725 | 13.33° C | 42% | 1022 hPa | - | - | - | - |
| 1777447296 | 14.44° C | 41% | 1022 hPa | - | - | - | - |
| 1777446866 | 14.44° C | 40% | 1022 hPa | - | - | - | - |
| 1777446437 | 14.44° C | 40% | 1021 hPa | - | - | - | - |
| 1777446007 | 14.44° C | 41% | 1022 hPa | - | - | - | - |
| 1777445578 | 13.89° C | 42% | 1021 hPa | - | - | - | - |
| 1777444719 | 13.33° C | 43% | 1021 hPa | - | - | - | - |
| 1777444289 | 13.33° C | 43% | 1022 hPa | - | - | - | - |
| 1777443860 | 13.33° C | 44% | 1022 hPa | - | - | - | - |
| 1777443430 | 12.78° C | 44% | 1021 hPa | - | - | - | - |
| 1777443001 | 12.22° C | 45% | 1021 hPa | - | - | - | - |
| 1777442410 | 11.67° C | 46% | 1022 hPa | - | - | - | - |
| 1777441981 | 11.11° C | 47% | 1022 hPa | - | - | - | - |
| 1777441552 | 10° C | 49% | 1022 hPa | - | - | - | - |
| 1777441122 | 7.78° C | 53% | 1022 hPa | - | - | - | - |
| 1777440693 | 5.56° C | 58% | 1021 hPa | - | - | - | - |
| 1777440263 | 5.56° C | 59% | 1022 hPa | - | - | - | - |
| 1777439834 | 5.56° C | 59% | 1021 hPa | - | - | - | - |
| 1777439404 | 5° C | 59% | 1022 hPa | - | - | - | - |
| 1777438975 | 4.44° C | 59% | 1021 hPa | - | - | - | - |
| 1777438545 | 4.44° C | 60% | 1021 hPa | - | - | - | - |
| 1777438116 | 4.44° C | 60% | 1021 hPa | - | - | - | - |
| 1777437257 | 4.44° C | 60% | 1022 hPa | - | - | - | - |
| 1777436828 | 4.44° C | 60% | 1020 hPa | - | - | - | - |
* Rain since midnight (hover to see other rain measurements)
** Current wind speed in m/s (hover to see current wind gust speed)